createdAt,value
2019-03-28T00:00:18.378Z,22.9
2019-03-28T00:01:08.394Z,23
2019-03-28T00:01:58.736Z,23
2019-03-28T00:02:48.498Z,23
2019-03-28T00:03:38.008Z,23
2019-03-28T00:04:28.068Z,23
2019-03-28T00:05:18.463Z,23
2019-03-28T00:06:09.023Z,23
2019-03-28T00:06:58.263Z,23
2019-03-28T00:07:49.128Z,23
2019-03-28T00:08:38.369Z,23
2019-03-28T00:09:28.993Z,23
2019-03-28T00:10:19.318Z,23
2019-03-28T00:11:08.928Z,23
2019-03-28T00:11:59.550Z,23
2019-03-28T00:12:48.956Z,23
2019-03-28T00:13:39.281Z,23
2019-03-28T00:14:29.344Z,23
2019-03-28T00:15:19.130Z,23
2019-03-28T00:16:09.470Z,23
2019-03-28T00:16:58.500Z,23
2019-03-28T00:17:48.913Z,23
2019-03-28T00:18:38.975Z,23
2019-03-28T00:19:28.772Z,23
2019-03-28T00:20:20.647Z,23
2019-03-28T00:21:08.866Z,23
2019-03-28T00:21:59.409Z,23
2019-03-28T00:22:49.281Z,23
2019-03-28T00:23:39.807Z,23.1
2019-03-28T00:24:29.887Z,23
2019-03-28T00:25:19.657Z,23
2019-03-28T00:26:09.724Z,23
2019-03-28T00:27:00.167Z,23.1
2019-03-28T00:27:50.617Z,23
2019-03-28T00:28:40.871Z,23.1
2019-03-28T00:29:30.833Z,23.1
2019-03-28T00:30:20.754Z,23
2019-03-28T00:31:11.174Z,23
2019-03-28T00:32:00.951Z,23
2019-03-28T00:32:49.947Z,23.1
2019-03-28T00:33:39.694Z,23
2019-03-28T00:34:30.612Z,23.1
2019-03-28T00:35:20.122Z,23.1
2019-03-28T00:36:10.432Z,23.1
2019-03-28T00:37:00.759Z,23.1
2019-03-28T00:37:51.311Z,23.1
2019-03-28T00:38:40.874Z,23.1
2019-03-28T00:39:30.599Z,23.1
2019-03-28T00:40:21.494Z,23.1
2019-03-28T00:41:10.809Z,23
2019-03-28T00:42:00.289Z,23.1
2019-03-28T00:42:51.663Z,23.1
2019-03-28T00:43:40.994Z,23.1
2019-03-28T00:44:31.780Z,23.1
2019-03-28T00:45:21.118Z,23.1
2019-03-28T00:46:11.351Z,23.1
2019-03-28T00:47:01.448Z,23.1
2019-03-28T00:47:51.749Z,23.1
2019-03-28T00:48:42.083Z,23.1
2019-03-28T00:49:31.866Z,23.1
2019-03-28T00:50:21.933Z,23.1
2019-03-28T00:51:11.781Z,23.1
2019-03-28T00:52:02.087Z,23.1
2019-03-28T00:52:52.410Z,23.1
2019-03-28T00:53:42.480Z,23.1
2019-03-28T00:54:32.498Z,23.1
2019-03-28T00:55:22.649Z,23.1
2019-03-28T00:56:12.360Z,23.1
2019-03-28T00:57:02.796Z,23.1
2019-03-28T00:57:52.295Z,23.1
2019-03-28T00:58:42.245Z,23.1
2019-03-28T00:59:32.962Z,23.1
2019-03-28T01:00:21.668Z,23.1
2019-03-28T01:01:12.243Z,23.1
2019-03-28T01:02:02.324Z,23.1
2019-03-28T01:02:52.395Z,23.1
2019-03-28T01:03:42.716Z,23.1
2019-03-28T01:04:32.492Z,23.1
2019-03-28T01:05:22.815Z,23.1
2019-03-28T01:06:12.618Z,23.1
2019-03-28T01:07:02.210Z,23.1
2019-03-28T01:07:52.522Z,23.1
2019-03-28T01:08:42.852Z,23.1
2019-03-28T01:09:33.499Z,23.1
2019-03-28T01:10:24.122Z,23.1
2019-03-28T01:11:14.085Z,23.1
2019-03-28T01:12:03.716Z,23.1
2019-03-28T01:12:54.104Z,23.1
2019-03-28T01:13:44.242Z,23.1
2019-03-28T01:14:33.603Z,23.1
2019-03-28T01:15:23.837Z,23.1
2019-03-28T01:16:13.032Z,23.1
2019-03-28T01:17:03.319Z,23.1
2019-03-28T01:17:53.912Z,23.1
2019-03-28T01:18:43.727Z,23.1
2019-03-28T01:19:33.839Z,23.1
2019-03-28T01:20:23.367Z,23.1
2019-03-28T01:21:13.968Z,23.1
2019-03-28T01:22:03.936Z,23.1
2019-03-28T01:22:54.004Z,23.1
2019-03-28T01:23:44.612Z,23.1
2019-03-28T01:24:34.393Z,23.1
2019-03-28T01:25:24.490Z,23.1
2019-03-28T01:26:14.536Z,23.1
2019-03-28T01:27:04.876Z,23.1
2019-03-28T01:27:55.093Z,23.1
2019-03-28T01:28:45.573Z,23.1
2019-03-28T01:29:35.229Z,23.1
2019-03-28T01:30:25.150Z,23.1
2019-03-28T01:31:14.929Z,23.1
2019-03-28T01:32:05.648Z,23.1
2019-03-28T01:32:55.618Z,23.1
2019-03-28T01:33:45.326Z,23.1
2019-03-28T01:34:35.626Z,23.1
2019-03-28T01:35:26.138Z,23.1
2019-03-28T01:36:16.041Z,23.1
2019-03-28T01:37:05.848Z,23.1
2019-03-28T01:37:55.961Z,23.1
2019-03-28T01:38:45.944Z,23.1
2019-03-28T01:39:36.418Z,23.1
2019-03-28T01:40:26.170Z,23.1
2019-03-28T01:41:16.216Z,23.1
2019-03-28T01:42:06.698Z,23.1
2019-03-28T01:42:55.136Z,23.1
2019-03-28T01:43:45.812Z,23.1
2019-03-28T01:44:35.620Z,23.1
2019-03-28T01:45:25.967Z,23.1
2019-03-28T01:46:15.695Z,23.1
2019-03-28T01:47:06.043Z,23.1
2019-03-28T01:47:54.995Z,23.1
2019-03-28T01:48:46.230Z,23.1
2019-03-28T01:49:35.960Z,23.2
2019-03-28T01:50:25.998Z,23.2
2019-03-28T01:51:16.052Z,23.1
2019-03-28T01:52:09.587Z,23.2
2019-03-28T01:52:56.743Z,23.2
2019-03-28T01:53:45.950Z,23.1
2019-03-28T01:54:36.320Z,23.2
2019-03-28T01:55:26.625Z,23.1
2019-03-28T01:56:16.973Z,23.1
2019-03-28T01:57:17.387Z,23.1
2019-03-28T01:57:56.810Z,23.2
2019-03-28T01:58:46.857Z,23.2
2019-03-28T01:59:36.935Z,23.2
2019-03-28T02:00:26.987Z,23.2
2019-03-28T02:01:17.050Z,23.2
2019-03-28T02:02:06.562Z,23.2
2019-03-28T02:02:57.472Z,23.2
2019-03-28T02:03:47.308Z,23.1
2019-03-28T02:04:37.315Z,23.2
2019-03-28T02:05:27.403Z,23.2
2019-03-28T02:06:17.419Z,23.2
2019-03-28T02:07:07.219Z,23.2
2019-03-28T02:07:56.986Z,23.2
2019-03-28T02:08:47.607Z,23.2
2019-03-28T02:09:37.997Z,23.2
2019-03-28T02:10:27.976Z,23.2
2019-03-28T02:11:18.438Z,23.2
2019-03-28T02:12:08.796Z,23.2
2019-03-28T02:12:58.815Z,23.2
2019-03-28T02:13:48.249Z,23.2
2019-03-28T02:14:38.846Z,23.2
2019-03-28T02:15:28.101Z,23.2
2019-03-28T02:16:17.589Z,23.2
2019-03-28T02:17:07.698Z,23.2
2019-03-28T02:17:58.261Z,23.2
2019-03-28T02:18:47.766Z,23.2
2019-03-28T02:19:38.653Z,23.2
2019-03-28T02:20:28.741Z,23.2
2019-03-28T02:21:18.546Z,23.2
2019-03-28T02:22:08.381Z,23.2
2019-03-28T02:22:58.432Z,23.2
2019-03-28T02:23:47.931Z,23.2
2019-03-28T02:24:38.256Z,23.2
2019-03-28T02:25:29.088Z,23.2
2019-03-28T02:26:18.580Z,23.2
2019-03-28T02:27:07.891Z,23.2
2019-03-28T02:27:58.517Z,23.2
2019-03-28T02:28:49.048Z,23.3
2019-03-28T02:29:38.875Z,23.2
2019-03-28T02:30:30.532Z,23.2
2019-03-28T02:31:20.853Z,23.3
2019-03-28T02:32:09.356Z,23.2
2019-03-28T02:32:59.915Z,23.3
2019-03-28T02:33:49.458Z,23.2
2019-03-28T02:34:38.998Z,23.3
2019-03-28T02:35:29.021Z,23.3
2019-03-28T02:36:19.708Z,23.3
2019-03-28T02:37:09.802Z,23.2
2019-03-28T02:37:59.872Z,23.2
2019-03-28T02:38:50.096Z,23.2
2019-03-28T02:39:39.630Z,23.3
2019-03-28T02:40:29.958Z,23.3
2019-03-28T02:41:19.779Z,23.3
2019-03-28T02:42:09.808Z,23.3
2019-03-28T02:43:00.225Z,23.3
2019-03-28T02:43:50.540Z,23.3
2019-03-28T02:44:41.463Z,23.3
2019-03-28T02:45:31.933Z,23.3
2019-03-28T02:46:19.537Z,23.3
2019-03-28T02:47:10.545Z,23.3
2019-03-28T02:48:00.499Z,23.3
2019-03-28T02:48:50.961Z,23.3
2019-03-28T02:49:40.615Z,23.3
2019-03-28T02:50:30.900Z,23.3
2019-03-28T02:51:21.030Z,23.3
2019-03-28T02:52:10.807Z,23.3
2019-03-28T02:53:00.287Z,23.3
2019-03-28T02:53:51.333Z,23.3
2019-03-28T02:54:41.262Z,23.3
2019-03-28T02:55:31.050Z,23.3
2019-03-28T02:56:21.629Z,23.3
2019-03-28T02:57:12.432Z,23.3
2019-03-28T02:58:00.890Z,23.3
2019-03-28T02:58:51.265Z,23.3
2019-03-28T02:59:41.366Z,23.3
2019-03-28T03:00:31.112Z,23.3
2019-03-28T03:01:21.774Z,23.3
2019-03-28T03:02:12.368Z,23.3
2019-03-28T03:03:01.954Z,23.3
2019-03-28T03:03:51.636Z,23.3
2019-03-28T03:07:22.280Z,23.3
2019-03-28T03:08:13.162Z,23.3
2019-03-28T03:09:03.696Z,23.3
2019-03-28T03:09:54.017Z,23.3
2019-03-28T03:10:42.196Z,23.3
2019-03-28T03:11:32.743Z,23.3
2019-03-28T03:12:22.369Z,23.3
2019-03-28T03:13:12.877Z,23.3
2019-03-28T03:14:03.197Z,23.3
2019-03-28T03:14:52.691Z,23.3
2019-03-28T03:15:43.278Z,23.3
2019-03-28T03:16:33.079Z,23.3
2019-03-28T03:17:22.875Z,23.3
2019-03-28T03:18:13.511Z,23.3
2019-03-28T03:19:04.207Z,23.3
2019-03-28T03:19:54.072Z,23.3
2019-03-28T03:20:44.178Z,23.3
2019-03-28T03:21:33.535Z,23.3
2019-03-28T03:22:23.497Z,23.3
2019-03-28T03:23:13.427Z,23.3
2019-03-28T03:24:03.678Z,23.3
2019-03-28T03:24:54.093Z,23.3
2019-03-28T03:25:43.317Z,23.3
2019-03-28T03:26:33.838Z,23.3
2019-03-28T03:27:23.878Z,23.3
2019-03-28T03:28:13.886Z,23.3
2019-03-28T03:29:04.082Z,23.3
2019-03-28T03:29:54.054Z,23.3
2019-03-28T03:30:44.498Z,23.3
2019-03-28T03:31:34.574Z,23.3
2019-03-28T03:32:24.521Z,23.3
2019-03-28T03:33:15.175Z,23.3
2019-03-28T03:34:07.196Z,23.3
2019-03-28T03:34:54.866Z,23.3
2019-03-28T03:35:44.760Z,23.3
2019-03-28T03:36:34.264Z,23.3
2019-03-28T03:37:23.824Z,23.3
2019-03-28T03:38:14.156Z,23.3
2019-03-28T03:39:04.569Z,23.3
2019-03-28T03:39:54.775Z,23.3
2019-03-28T03:40:44.831Z,23.3
2019-03-28T03:41:35.033Z,23.3
2019-03-28T03:42:24.976Z,23.3
2019-03-28T03:43:15.045Z,23.3
2019-03-28T03:44:05.425Z,23.3
2019-03-28T03:44:55.386Z,23.3
2019-03-28T03:45:45.516Z,23.3
2019-03-28T03:46:34.976Z,23.3
2019-03-28T03:47:25.131Z,23.3
2019-03-28T03:48:16.307Z,23.3
2019-03-28T03:49:06.311Z,23.3
2019-03-28T03:49:57.005Z,23.3
2019-03-28T03:50:45.331Z,23.3
2019-03-28T03:51:35.643Z,23.4
2019-03-28T03:52:25.970Z,23.3
2019-03-28T03:53:15.698Z,23.3
2019-03-28T03:54:05.536Z,23.3
2019-03-28T03:54:56.243Z,23.3
2019-03-28T03:55:46.194Z,23.3
2019-03-28T03:56:36.281Z,23.3
2019-03-28T03:57:26.313Z,23.4
2019-03-28T03:58:23.459Z,23.4
2019-03-28T03:59:05.867Z,23.4
2019-03-28T03:59:55.931Z,23.3
2019-03-28T04:00:46.302Z,23.4
2019-03-28T04:01:36.631Z,23.3
2019-03-28T04:02:25.859Z,23.4
2019-03-28T04:03:16.188Z,23.4
2019-03-28T04:04:06.577Z,23.4
2019-03-28T04:05:01.427Z,23.3
2019-03-28T04:05:46.890Z,23.4
2019-03-28T04:06:35.921Z,23.4
2019-03-28T04:07:26.550Z,23.3
2019-03-28T04:08:17.133Z,23.3
2019-03-28T04:09:07.183Z,23.4
2019-03-28T04:09:56.961Z,23.3
2019-03-28T04:10:46.711Z,23.4
2019-03-28T04:11:37.182Z,23.4
2019-03-28T04:12:27.722Z,23.4
2019-03-28T04:13:17.189Z,23.4
2019-03-28T04:14:07.640Z,23.4
2019-03-28T04:14:57.299Z,23.4
2019-03-28T04:15:47.118Z,23.4
2019-03-28T04:16:37.720Z,23.4
2019-03-28T04:17:27.473Z,23.4
2019-03-28T04:18:23.060Z,23.4
2019-03-28T04:19:07.751Z,23.4
2019-03-28T04:19:59.217Z,23.4
2019-03-28T04:20:47.476Z,23.4
2019-03-28T04:21:37.495Z,23.4
2019-03-28T04:22:28.120Z,23.4
2019-03-28T04:23:17.712Z,23.4
2019-03-28T04:24:08.338Z,23.4
2019-03-28T04:24:58.315Z,23.4
2019-03-28T04:25:48.207Z,23.4
2019-03-28T04:26:37.617Z,23.4
2019-03-28T04:27:28.227Z,23.4
2019-03-28T04:28:36.914Z,23.4
2019-03-28T04:29:09.135Z,23.4
2019-03-28T04:29:59.582Z,23.4
2019-03-28T04:30:48.254Z,23.4
2019-03-28T04:31:38.521Z,23.4
2019-03-28T04:32:28.551Z,23.4
2019-03-28T04:33:18.873Z,23.4
2019-03-28T04:34:14.534Z,23.4
2019-03-28T04:35:00.259Z,23.4
2019-03-28T04:35:50.184Z,23.4
2019-03-28T04:36:38.640Z,23.4
2019-03-28T04:37:29.207Z,23.4
2019-03-28T04:38:19.070Z,23.4
2019-03-28T04:39:09.029Z,23.4
2019-03-28T04:39:58.790Z,23.4
2019-03-28T04:40:49.430Z,23.4
2019-03-28T04:41:39.204Z,23.4
2019-03-28T04:42:29.520Z,23.4
2019-03-28T04:43:18.859Z,23.4
2019-03-28T04:44:09.178Z,23.4
2019-03-28T04:44:59.681Z,23.4
2019-03-28T04:45:49.458Z,23.4
2019-03-28T04:46:39.817Z,23.4
2019-03-28T04:47:29.901Z,23.4
2019-03-28T04:48:19.660Z,23.4
2019-03-28T04:49:09.708Z,23.4
2019-03-28T04:49:59.839Z,23.4
2019-03-28T04:50:49.833Z,23.4
2019-03-28T04:51:39.878Z,23.4
2019-03-28T04:52:33.411Z,23.4
2019-03-28T04:53:20.038Z,23.4
2019-03-28T04:54:12.891Z,23.4
2019-03-28T04:55:00.484Z,23.4
2019-03-28T04:55:50.688Z,23.4
2019-03-28T04:56:41.207Z,23.4
2019-03-28T04:57:31.533Z,23.4
2019-03-28T04:58:25.312Z,23.4
2019-03-28T04:59:10.690Z,23.4
2019-03-28T04:59:59.660Z,23.4
2019-03-28T05:00:50.623Z,23.4
2019-03-28T05:01:40.900Z,23.4
2019-03-28T05:02:31.930Z,23.4
2019-03-28T05:03:21.150Z,23.4
2019-03-28T05:04:11.232Z,23.3
2019-03-28T05:05:01.377Z,23.3
2019-03-28T05:05:50.919Z,23.3
2019-03-28T05:06:42.397Z,23.2
2019-03-28T05:07:30.463Z,23.2
2019-03-28T05:08:20.542Z,23.1
2019-03-28T05:09:11.450Z,23.1
2019-03-28T05:10:01.096Z,23.1
2019-03-28T05:10:51.522Z,23
2019-03-28T05:11:40.897Z,23
2019-03-28T05:12:31.664Z,22.9
2019-03-28T05:13:22.722Z,22.9
2019-03-28T05:14:12.806Z,22.9
2019-03-28T05:15:01.881Z,22.9
2019-03-28T05:15:51.921Z,22.9
2019-03-28T05:16:41.966Z,22.9
2019-03-28T05:17:31.724Z,22.9
2019-03-28T05:18:21.805Z,22.8
2019-03-28T05:19:11.869Z,22.8
2019-03-28T05:20:02.121Z,22.8
2019-03-28T05:20:52.249Z,22.8
2019-03-28T05:21:42.421Z,22.8
2019-03-28T05:22:32.106Z,22.8
2019-03-28T05:23:22.701Z,22.8
2019-03-28T05:24:12.229Z,22.8
2019-03-28T05:25:03.678Z,22.8
2019-03-28T05:25:53.406Z,22.7
2019-03-28T05:26:43.414Z,22.7
2019-03-28T05:27:32.184Z,22.6
2019-03-28T05:28:22.640Z,22.6
2019-03-28T05:29:12.861Z,22.6
2019-03-28T05:30:02.402Z,22.6
2019-03-28T05:30:52.696Z,22.6
2019-03-28T05:31:42.768Z,22.5
2019-03-28T05:32:32.623Z,22.5
2019-03-28T05:33:23.146Z,22.5
2019-03-28T05:34:13.413Z,22.4
2019-03-28T05:35:04.161Z,22.4
2019-03-28T05:35:53.768Z,22.4
2019-03-28T05:36:44.377Z,22.4
2019-03-28T05:37:32.951Z,22.4
2019-03-28T05:38:22.773Z,22.4
2019-03-28T05:39:13.106Z,22.4
2019-03-28T05:40:03.790Z,22.4
2019-03-28T05:40:53.163Z,22.3
2019-03-28T05:41:43.105Z,22.4
2019-03-28T05:42:33.811Z,22.4
2019-03-28T05:43:23.890Z,22.3
2019-03-28T05:44:13.668Z,22.3
2019-03-28T05:45:04.285Z,22.3
2019-03-28T05:45:53.825Z,22.3
2019-03-28T05:46:44.127Z,22.3
2019-03-28T05:47:34.838Z,22.3
2019-03-28T05:48:23.978Z,22.3
2019-03-28T05:49:14.023Z,22.2
2019-03-28T05:50:04.387Z,22.2
2019-03-28T05:50:53.777Z,22.1
2019-03-28T05:51:44.217Z,22.1
2019-03-28T05:52:33.922Z,22.1
2019-03-28T05:53:25.080Z,22.1
2019-03-28T05:54:13.384Z,22.1
2019-03-28T05:55:07.634Z,22.1
2019-03-28T05:55:54.322Z,22.1
2019-03-28T05:56:44.837Z,22.1
2019-03-28T05:57:34.615Z,22.1
2019-03-28T05:58:24.964Z,22.1
2019-03-28T05:59:16.204Z,22.1
2019-03-28T06:00:05.293Z,22.1
2019-03-28T06:00:56.182Z,22.1
2019-03-28T06:01:45.174Z,22.1
2019-03-28T06:02:35.299Z,22.1
2019-03-28T06:03:24.749Z,22.1
2019-03-28T06:05:22.546Z,22.1
2019-03-28T06:06:12.612Z,22.1
2019-03-28T06:07:16.765Z,22.1
2019-03-28T06:07:52.156Z,22.1
2019-03-28T06:08:58.274Z,22.1
2019-03-28T06:09:47.639Z,22.1
2019-03-28T06:10:22.899Z,22.1
2019-03-28T06:11:12.883Z,22.1
2019-03-28T06:12:02.744Z,22.1
2019-03-28T06:13:43.426Z,22.1
2019-03-28T06:14:32.911Z,22
2019-03-28T06:15:22.986Z,22
2019-03-28T06:16:12.766Z,22
2019-03-28T06:17:17.476Z,22
2019-03-28T06:17:54.901Z,22
2019-03-28T06:18:43.525Z,22
2019-03-28T06:19:33.734Z,22
2019-03-28T06:20:22.775Z,22
2019-03-28T06:21:13.595Z,21.9
2019-03-28T06:22:03.728Z,21.9
2019-03-28T06:22:53.735Z,21.9
2019-03-28T06:23:44.354Z,22
2019-03-28T06:24:34.444Z,22
2019-03-28T06:25:26.642Z,21.9
2019-03-28T06:26:13.579Z,21.9
2019-03-28T06:27:03.325Z,21.9
2019-03-28T06:27:53.680Z,21.8
2019-03-28T06:28:42.905Z,21.8
2019-03-28T06:29:33.498Z,21.7
2019-03-28T06:30:24.028Z,21.5
2019-03-28T06:31:15.208Z,21.4
2019-03-28T06:32:05.400Z,21.2
2019-03-28T06:32:54.303Z,20.9
2019-03-28T06:33:44.289Z,20.8
2019-03-28T06:34:34.122Z,20.6
2019-03-28T06:35:27.256Z,20.3
2019-03-28T06:36:15.832Z,20.1
2019-03-28T06:37:04.540Z,19.9
2019-03-28T06:37:56.886Z,19.7
2019-03-28T06:38:44.637Z,19.5
2019-03-28T06:39:37.499Z,19.3
2019-03-28T06:40:25.035Z,19.1
2019-03-28T06:41:14.579Z,19
2019-03-28T06:42:04.698Z,18.8
2019-03-28T06:42:54.964Z,18.8
2019-03-28T06:43:46.565Z,18.6
2019-03-28T06:44:34.802Z,18.6
2019-03-28T06:45:25.174Z,18.5
2019-03-28T06:46:15.473Z,18.4
2019-03-28T06:47:04.714Z,18.4
2019-03-28T06:47:55.332Z,18.4
2019-03-28T06:48:44.831Z,18.3
2019-03-28T06:49:35.159Z,18.3
2019-03-28T06:50:25.791Z,18.3
2019-03-28T06:51:15.547Z,18.3
2019-03-28T06:52:05.604Z,18.2
2019-03-28T06:52:55.923Z,18.2
2019-03-28T06:53:45.704Z,18.2
2019-03-28T06:54:36.201Z,18.1
2019-03-28T06:55:29.633Z,18.1
2019-03-28T06:56:15.904Z,18.1
2019-03-28T06:57:05.704Z,18.1
2019-03-28T06:57:56.093Z,18.1
2019-03-28T06:58:45.805Z,18.1
2019-03-28T06:59:42.323Z,18.1
2019-03-28T07:01:16.523Z,18.1
2019-03-28T07:02:06.023Z,18.4
2019-03-28T07:02:56.148Z,18.8
2019-03-28T07:05:29.841Z,23.1
2019-03-28T07:06:12.058Z,22.3
2019-03-28T07:07:02.128Z,21.8
2019-03-28T07:07:52.203Z,20.6
2019-03-28T07:08:42.255Z,19.3
2019-03-28T07:09:32.780Z,18.6
2019-03-28T07:10:22.564Z,18.3
2019-03-28T07:11:12.350Z,18.1
2019-03-28T07:12:02.205Z,18.1
2019-03-28T07:12:52.233Z,18
2019-03-28T07:13:42.599Z,17.9
2019-03-28T07:14:32.999Z,17.9
2019-03-28T07:15:23.641Z,17.9
2019-03-28T07:16:12.782Z,17.9
2019-03-28T07:17:02.834Z,17.9
2019-03-28T07:17:52.617Z,17.8
2019-03-28T07:18:42.952Z,17.8
2019-03-28T07:19:33.093Z,17.8
2019-03-28T07:20:22.503Z,17.1
2019-03-28T07:21:12.684Z,19.6
2019-03-28T07:22:02.847Z,20.2
2019-03-28T07:22:52.932Z,22.1
2019-03-28T07:23:43.544Z,23.5
2019-03-28T07:24:33.579Z,23.9
2019-03-28T07:25:26.967Z,23.8
2019-03-28T07:26:13.709Z,23.4
2019-03-28T07:27:02.977Z,23.1
2019-03-28T07:27:53.641Z,22.9
2019-03-28T07:28:42.834Z,22.8
2019-03-28T07:29:33.724Z,22.9
2019-03-28T07:30:24.151Z,23.1
2019-03-28T07:31:14.084Z,23.1
2019-03-28T07:32:03.914Z,23.2
2019-03-28T07:32:53.731Z,23.1
2019-03-28T07:33:44.048Z,23.1
2019-03-28T07:34:33.821Z,22.9
2019-03-28T07:35:23.959Z,22.9
2019-03-28T07:36:13.939Z,22.9
2019-03-28T07:37:03.997Z,22.9
2019-03-28T07:37:53.761Z,22.9
2019-03-28T07:38:44.374Z,22.9
2019-03-28T07:39:34.478Z,23
2019-03-28T07:40:24.278Z,23.2
2019-03-28T07:41:17.379Z,23.4
2019-03-28T07:42:04.269Z,23.6
2019-03-28T07:42:54.978Z,23.6
2019-03-28T07:43:45.153Z,23.6
2019-03-28T07:44:38.521Z,23.5
2019-03-28T07:45:25.340Z,23.4
2019-03-28T07:46:14.897Z,23.3
2019-03-28T07:47:05.610Z,23.3
2019-03-28T07:47:56.467Z,23.3
2019-03-28T07:48:44.748Z,23.3
2019-03-28T07:49:38.496Z,23.4
2019-03-28T07:50:25.697Z,23.4
2019-03-28T07:51:15.773Z,23.4
2019-03-28T07:52:06.310Z,23.4
2019-03-28T07:52:56.590Z,23.4
2019-03-28T07:53:45.972Z,23.5
2019-03-28T07:54:36.019Z,23.5
2019-03-28T07:55:25.787Z,23.6
2019-03-28T07:56:15.847Z,23.6
2019-03-28T07:57:06.307Z,23.7
2019-03-28T07:57:55.674Z,23.8
2019-03-28T07:58:49.394Z,23.8
2019-03-28T07:59:36.394Z,23.9
2019-03-28T08:00:26.414Z,24
2019-03-28T08:01:19.964Z,24.5
2019-03-28T08:02:06.282Z,25.3
2019-03-28T08:03:00.334Z,26
2019-03-28T08:03:46.679Z,26.6
2019-03-28T08:04:36.439Z,26.9
2019-03-28T08:05:26.164Z,27.2
2019-03-28T08:06:18.020Z,27.6
2019-03-28T08:07:56.984Z,28.1
2019-03-28T08:08:49.269Z,28.3
2019-03-28T08:09:41.771Z,28.6
2019-03-28T08:10:26.584Z,29
2019-03-28T08:11:17.642Z,29.3
2019-03-28T08:12:24.361Z,29.6
2019-03-28T08:12:57.311Z,29.9
2019-03-28T08:13:47.149Z,30.1
2019-03-28T08:14:37.231Z,30.3
2019-03-28T08:15:27.509Z,30.6
2019-03-28T08:16:16.732Z,30.8
2019-03-28T08:17:07.151Z,30.9
2019-03-28T08:17:57.669Z,31.2
2019-03-28T08:18:48.228Z,31.4
2019-03-28T08:19:42.276Z,31.7
2019-03-28T08:20:27.304Z,31.9
2019-03-28T08:21:17.948Z,32.1
2019-03-28T08:22:07.505Z,32.3
2019-03-28T08:22:57.564Z,32.4
2019-03-28T08:23:47.624Z,32.4
2019-03-28T08:24:37.391Z,32.1
2019-03-28T08:25:27.740Z,32.2
2019-03-28T08:26:17.788Z,32.5
2019-03-28T08:27:07.685Z,32.9
2019-03-28T08:28:01.431Z,33.4
2019-03-28T08:28:47.993Z,33.8
2019-03-28T08:29:38.052Z,34.1
2019-03-28T08:30:28.090Z,34.4
2019-03-28T08:31:19.312Z,34.6
2019-03-28T08:32:08.905Z,34.8
2019-03-28T08:32:58.015Z,35
2019-03-28T08:33:48.327Z,35.3
2019-03-28T08:34:38.410Z,35.5
2019-03-28T08:35:28.565Z,35.6
2019-03-28T08:36:18.557Z,35.4
2019-03-28T08:37:08.126Z,35.1
2019-03-28T08:37:58.700Z,34.8
2019-03-28T08:38:48.695Z,34.9
2019-03-28T08:39:38.746Z,35.3
2019-03-28T08:40:28.070Z,36
2019-03-28T08:41:19.623Z,36.5
2019-03-28T08:42:08.442Z,37
2019-03-28T08:42:58.499Z,37.3
2019-03-28T08:43:48.289Z,37.4
2019-03-28T08:44:39.552Z,37.6
2019-03-28T08:45:28.885Z,37.8
2019-03-28T08:46:19.252Z,37.9
2019-03-28T08:47:10.362Z,38.2
2019-03-28T08:47:59.127Z,38.5
2019-03-28T08:48:49.151Z,38.8
2019-03-28T08:49:39.210Z,39
2019-03-28T08:50:29.542Z,39.2
2019-03-28T08:51:19.339Z,39.3
2019-03-28T08:52:13.088Z,39.1
2019-03-28T08:52:59.247Z,38.9
2019-03-28T08:53:49.502Z,38.8
2019-03-28T08:54:39.849Z,39.1
2019-03-28T08:55:29.466Z,39.6
2019-03-28T08:56:19.506Z,40.1
2019-03-28T08:57:10.094Z,40.4
2019-03-28T08:58:00.117Z,40.8
2019-03-28T08:58:49.947Z,41
2019-03-28T08:59:40.209Z,41.2
2019-03-28T09:00:56.984Z,41.4
2019-03-28T09:01:20.409Z,41.7
2019-03-28T09:02:10.448Z,41.8
2019-03-28T09:03:00.156Z,42
2019-03-28T09:03:53.945Z,42.3
2019-03-28T09:04:41.026Z,42.5
2019-03-28T09:05:30.561Z,42.6
2019-03-28T09:06:22.292Z,42.8
2019-03-28T09:07:11.205Z,42.8
2019-03-28T09:08:01.278Z,42.7
2019-03-28T09:08:50.490Z,42.8
2019-03-28T09:09:41.388Z,43.1
2019-03-28T09:10:31.201Z,43.4
2019-03-28T09:11:24.844Z,43.8
2019-03-28T09:12:11.386Z,44
2019-03-28T09:13:01.369Z,44.3
2019-03-28T09:13:51.423Z,44.4
2019-03-28T09:14:41.893Z,44.6
2019-03-28T09:15:46.752Z,44.8
2019-03-28T09:16:21.895Z,44.9
2019-03-28T09:17:10.898Z,45.1
2019-03-28T09:18:04.198Z,45.3
2019-03-28T09:18:51.563Z,45.6
2019-03-28T09:19:43.603Z,45.8
2019-03-28T09:20:31.360Z,46
2019-03-28T09:21:21.800Z,46.2
2019-03-28T09:22:11.747Z,46.3
2019-03-28T09:23:02.161Z,46.5
2019-03-28T09:23:52.145Z,46.7
2019-03-28T09:24:42.220Z,46.9
2019-03-28T09:25:32.512Z,47.1
2019-03-28T09:26:22.590Z,47.3
2019-03-28T09:27:12.374Z,47.4
2019-03-28T09:28:02.152Z,47.6
2019-03-28T09:28:52.827Z,47.8
2019-03-28T09:29:42.002Z,48
2019-03-28T09:30:49.462Z,48.2
2019-03-28T09:31:25.192Z,48.4
2019-03-28T09:32:12.434Z,48.5
2019-03-28T09:33:02.392Z,48.7
2019-03-28T09:33:52.871Z,48.9
2019-03-28T09:34:43.190Z,49
2019-03-28T09:35:33.935Z,49.2
2019-03-28T09:36:23.497Z,49.3
2019-03-28T09:37:13.418Z,49.4
2019-03-28T09:38:02.880Z,49.6
2019-03-28T09:38:52.957Z,49.8
2019-03-28T09:39:43.299Z,50
2019-03-28T09:40:33.659Z,50.1
2019-03-28T09:41:23.124Z,50.3
2019-03-28T09:42:13.727Z,50.4
2019-03-28T09:43:03.644Z,50.6
2019-03-28T09:44:00.666Z,50.7
2019-03-28T09:44:43.922Z,50.8
2019-03-28T09:45:34.602Z,51
2019-03-28T09:46:23.004Z,51.2
2019-03-28T09:47:13.036Z,51.3
2019-03-28T09:48:03.701Z,51.4
2019-03-28T09:48:53.287Z,51.6
2019-03-28T09:49:43.787Z,51.8
2019-03-28T09:51:23.631Z,52
2019-03-28T09:52:14.197Z,52.1
2019-03-28T09:53:05.278Z,52.3
2019-03-28T09:53:54.433Z,52.4
2019-03-28T09:54:43.788Z,52.6
2019-03-28T09:55:34.458Z,52.6
2019-03-28T09:56:24.468Z,52.8
2019-03-28T09:57:14.235Z,52.9
2019-03-28T09:58:04.861Z,53
2019-03-28T09:58:54.653Z,53.1
2019-03-28T09:59:44.756Z,53.3
2019-03-28T10:00:39.440Z,53.4
2019-03-28T10:01:24.593Z,53.5
2019-03-28T10:02:14.885Z,53.7
2019-03-28T10:03:04.318Z,53.8
2019-03-28T10:03:55.283Z,53.8
2019-03-28T10:06:22.063Z,54.2
2019-03-28T10:07:11.852Z,54.3
2019-03-28T10:08:02.010Z,54.3
2019-03-28T10:08:52.082Z,54.4
2019-03-28T10:09:44.387Z,54.6
2019-03-28T10:10:32.636Z,54.6
2019-03-28T10:11:21.373Z,54.7
2019-03-28T10:12:12.774Z,54.9
2019-03-28T10:13:02.560Z,54.9
2019-03-28T10:13:52.384Z,55.1
2019-03-28T10:14:42.938Z,55.2
2019-03-28T10:15:33.013Z,55.3
2019-03-28T10:16:23.067Z,55.4
2019-03-28T10:17:12.364Z,55.4
2019-03-28T10:18:02.703Z,55.6
2019-03-28T10:18:53.268Z,55.6
2019-03-28T10:19:43.285Z,55.7
2019-03-28T10:20:33.074Z,55.8
2019-03-28T10:21:23.165Z,55.9
2019-03-28T10:22:13.505Z,56
2019-03-28T10:23:03.551Z,56.1
2019-03-28T10:23:52.876Z,56.2
2019-03-28T10:24:42.941Z,56.3
2019-03-28T10:25:33.303Z,56.4
2019-03-28T10:26:23.473Z,56.4
2019-03-28T10:27:13.867Z,56.5
2019-03-28T10:28:03.453Z,56.6
2019-03-28T10:28:53.975Z,56.7
2019-03-28T10:29:43.747Z,56.8
2019-03-28T10:30:34.062Z,56.8
2019-03-28T10:31:23.655Z,56.9
2019-03-28T10:32:13.717Z,57
2019-03-28T10:33:03.794Z,57.1
2019-03-28T10:33:55.332Z,57.1
2019-03-28T10:34:43.700Z,57.3
2019-03-28T10:35:33.882Z,57.3
2019-03-28T10:36:24.001Z,57.4
2019-03-28T10:37:14.010Z,57.5
2019-03-28T10:38:04.638Z,57.6
2019-03-28T10:38:54.399Z,57.7
2019-03-28T10:40:34.229Z,57.8
2019-03-28T10:41:29.382Z,57.9
2019-03-28T10:42:14.910Z,58.1
2019-03-28T10:43:04.749Z,58.1
2019-03-28T10:43:55.053Z,58.2
2019-03-28T10:44:45.102Z,58.3
2019-03-28T10:45:38.489Z,58.4
2019-03-28T10:46:24.929Z,58.5
2019-03-28T10:48:05.322Z,58.7
2019-03-28T10:48:58.838Z,58.8
2019-03-28T10:49:46.325Z,58.8
2019-03-28T10:50:50.316Z,58.6
2019-03-28T10:51:25.579Z,58.6
2019-03-28T10:52:17.092Z,58.7
2019-03-28T10:53:05.434Z,58.8
2019-03-28T10:53:55.805Z,58.9
2019-03-28T10:54:45.319Z,59.1
2019-03-28T10:55:35.122Z,59.3
2019-03-28T10:56:28.599Z,59.3
2019-03-28T10:57:35.769Z,59.3
2019-03-28T10:58:21.961Z,59.4
2019-03-28T10:58:55.388Z,59.5
2019-03-28T10:59:45.691Z,59.6
2019-03-28T11:00:35.488Z,59.8
2019-03-28T11:01:55.571Z,59.9
2019-03-28T11:02:17.421Z,60.1
2019-03-28T11:03:08.108Z,60.1
2019-03-28T11:03:56.988Z,60.2
2019-03-28T11:04:46.551Z,60.2
2019-03-28T11:05:36.654Z,60.3
2019-03-28T11:06:26.351Z,60.4
2019-03-28T11:07:16.448Z,60.5
2019-03-28T11:08:06.808Z,60.4
2019-03-28T11:08:56.847Z,60.2
2019-03-28T11:09:46.636Z,59.9
2019-03-28T11:10:36.738Z,59.9
2019-03-28T11:11:27.580Z,60.1
2019-03-28T11:12:16.883Z,60.4
2019-03-28T11:13:10.999Z,60.7
2019-03-28T11:13:56.668Z,60.7
2019-03-28T11:14:50.336Z,60.5
2019-03-28T11:15:36.278Z,60
2019-03-28T11:16:27.123Z,59.6
2019-03-28T11:17:17.430Z,59.3
2019-03-28T11:18:07.238Z,59
2019-03-28T11:18:57.543Z,58.9
2019-03-28T11:19:48.301Z,58.8
2019-03-28T11:20:42.128Z,58.8
2019-03-28T11:21:27.715Z,58.9
2019-03-28T11:22:17.539Z,59.3